createdAt,value
2022-11-26T00:04:06.609Z,5.90
2022-11-26T00:08:24.155Z,7.87
2022-11-26T00:12:36.262Z,6.70
2022-11-26T00:16:45.868Z,6.47
2022-11-26T00:21:00.484Z,6.30
2022-11-26T00:25:18.026Z,5.93
2022-11-26T00:29:26.967Z,4.83
2022-11-26T00:33:35.907Z,5.80
2022-11-26T00:37:47.501Z,4.50
2022-11-26T00:41:56.071Z,5.97
2022-11-26T00:46:04.941Z,5.00
2022-11-26T00:50:26.007Z,6.33
2022-11-26T00:54:34.931Z,6.40
2022-11-26T00:58:47.596Z,6.20
2022-11-26T01:02:56.790Z,5.63
2022-11-26T01:07:05.505Z,5.40
2022-11-26T01:11:22.654Z,5.40
2022-11-26T01:15:31.365Z,5.53
2022-11-26T01:19:59.348Z,5.90
2022-11-26T01:24:08.488Z,6.17
2022-11-26T01:28:19.839Z,6.40
2022-11-26T01:32:29.739Z,5.80
2022-11-26T01:36:40.116Z,5.40
2022-11-26T01:41:15.525Z,6.33
2022-11-26T01:45:24.595Z,6.73
2022-11-26T01:49:35.833Z,6.87
2022-11-26T01:53:50.477Z,6.00
2022-11-26T01:57:59.402Z,6.60
2022-11-26T02:02:08.061Z,5.83
2022-11-26T02:06:19.933Z,6.03
2022-11-26T02:10:28.493Z,6.57
2022-11-26T02:14:40.339Z,5.77
2022-11-26T02:19:10.032Z,6.53
2022-11-26T02:23:42.068Z,5.27
2022-11-26T02:27:59.633Z,6.40
2022-11-26T02:32:17.238Z,5.97
2022-11-26T02:36:38.067Z,6.13
2022-11-26T02:40:46.992Z,6.87
2022-11-26T02:44:59.004Z,5.40
2022-11-26T02:49:28.418Z,6.63
2022-11-26T02:53:56.503Z,5.50
2022-11-26T02:58:05.711Z,5.97
2022-11-26T03:02:17.445Z,5.60
2022-11-26T03:06:28.659Z,5.63
2022-11-26T03:10:37.285Z,6.07
2022-11-26T03:14:46.024Z,6.67
2022-11-26T03:19:13.979Z,4.20
2022-11-26T03:23:22.706Z,5.40
2022-11-26T03:27:31.267Z,4.92
2022-11-26T03:31:39.884Z,6.37
2022-11-26T03:35:51.460Z,4.90
2022-11-26T03:40:00.194Z,5.20
2022-11-26T03:44:08.819Z,6.20
2022-11-26T03:48:17.448Z,5.60
2022-11-26T03:52:26.078Z,6.63
2022-11-26T03:56:34.706Z,6.87
2022-11-26T04:00:43.338Z,5.70
2022-11-26T04:04:51.919Z,5.40
2022-11-26T04:09:00.594Z,6.10
2022-11-26T04:13:11.049Z,5.23
2022-11-26T04:17:19.385Z,6.30
2022-11-26T04:21:27.912Z,5.20
2022-11-26T04:25:36.540Z,5.47
2022-11-26T04:29:45.170Z,4.80
2022-11-26T04:33:53.941Z,5.27
2022-11-26T04:38:02.631Z,5.00
2022-11-26T04:42:11.261Z,5.23
2022-11-26T04:46:19.811Z,5.03
2022-11-26T04:50:28.404Z,6.07
2022-11-26T04:54:56.397Z,5.30
2022-11-26T04:59:05.028Z,6.07
2022-11-26T05:03:15.089Z,5.17
2022-11-26T05:07:23.696Z,6.57
2022-11-26T05:11:32.447Z,6.83
2022-11-26T05:15:41.077Z,5.97
2022-11-26T05:19:49.567Z,5.97
2022-11-26T05:23:58.108Z,5.80
2022-11-26T05:28:06.758Z,5.60
2022-11-26T05:32:15.386Z,6.70
2022-11-26T05:36:24.116Z,4.77
2022-11-26T05:40:33.001Z,5.97
2022-11-26T05:44:41.687Z,6.07
2022-11-26T05:49:09.786Z,5.70
2022-11-26T05:53:18.395Z,7.93
2022-11-26T05:57:27.024Z,6.13
2022-11-26T06:01:35.645Z,5.67
2022-11-26T06:05:44.383Z,6.50
2022-11-26T06:09:53.014Z,6.10
2022-11-26T06:14:01.540Z,5.50
2022-11-26T06:18:10.116Z,6.27
2022-11-26T06:22:18.714Z,6.43
2022-11-26T06:26:27.760Z,7.30
2022-11-26T06:30:36.369Z,6.23
2022-11-26T06:34:48.752Z,5.80
2022-11-26T06:38:55.154Z,6.77
2022-11-26T06:43:03.987Z,7.60
2022-11-26T06:47:14.049Z,5.60
2022-11-26T06:51:24.547Z,6.93
2022-11-26T06:55:39.517Z,6.80
2022-11-26T06:59:48.128Z,7.30
2022-11-26T07:03:56.654Z,7.57
2022-11-26T07:08:05.447Z,4.75
2022-11-26T07:12:14.116Z,6.43
2022-11-26T07:16:23.407Z,6.80
2022-11-26T07:20:32.102Z,4.97
2022-11-26T07:24:40.798Z,6.40
2022-11-26T07:28:50.481Z,5.10
2022-11-26T07:32:59.107Z,5.87
2022-11-26T07:37:07.628Z,6.27
2022-11-26T07:41:19.114Z,6.57
2022-11-26T07:45:28.025Z,5.37
2022-11-26T07:49:37.279Z,6.80
2022-11-26T07:53:46.153Z,6.90
2022-11-26T07:57:55.071Z,6.70
2022-11-26T08:02:03.674Z,6.20
2022-11-26T08:06:18.275Z,6.80
2022-11-26T08:10:26.955Z,8.47
2022-11-26T08:14:55.840Z,7.13
2022-11-26T08:19:07.607Z,6.27
2022-11-26T08:23:16.542Z,6.87
2022-11-26T08:27:44.728Z,7.33
2022-11-26T08:31:53.628Z,7.13
2022-11-26T08:36:07.602Z,8.13
2022-11-26T08:40:14.463Z,7.90
2022-11-26T08:44:23.132Z,6.67
2022-11-26T08:48:32.620Z,7.00
2022-11-26T08:52:41.313Z,10.03
2022-11-26T08:56:49.943Z,6.83
2022-11-26T09:00:58.516Z,8.60
2022-11-26T09:05:07.523Z,8.23
2022-11-26T09:09:17.724Z,8.17
2022-11-26T09:13:26.811Z,7.93
2022-11-26T09:17:35.475Z,9.40
2022-11-26T09:21:44.878Z,7.70
2022-11-26T09:25:54.539Z,8.33
2022-11-26T09:30:03.990Z,7.40
2022-11-26T09:34:32.140Z,9.40
2022-11-26T09:38:41.316Z,7.80
2022-11-26T09:43:01.823Z,8.73
2022-11-26T09:47:14.550Z,9.03
2022-11-26T09:51:23.380Z,8.73
2022-11-26T09:55:35.000Z,9.30
2022-11-26T09:59:46.986Z,10.40
2022-11-26T10:03:55.820Z,8.67
2022-11-26T10:08:10.265Z,8.40
2022-11-26T10:13:16.840Z,7.70
2022-11-26T10:17:14.545Z,9.60
2022-11-26T10:21:57.266Z,7.27
2022-11-26T10:25:42.476Z,6.50
2022-11-26T10:29:54.094Z,6.90
2022-11-26T10:34:05.789Z,6.70
2022-11-26T10:38:14.482Z,7.40
2022-11-26T10:42:24.014Z,6.80
2022-11-26T10:46:37.534Z,6.00
2022-11-26T10:50:58.800Z,7.80
2022-11-26T10:55:22.694Z,7.87
2022-11-26T10:59:39.199Z,8.37
2022-11-26T11:04:08.241Z,6.30
2022-11-26T11:08:22.359Z,8.07
2022-11-26T11:12:30.993Z,12.47
2022-11-26T11:16:47.084Z,6.57
2022-11-26T11:21:03.288Z,7.60
2022-11-26T11:25:28.101Z,12.20
2022-11-26T11:29:39.497Z,8.00
2022-11-26T11:33:49.673Z,7.73
2022-11-26T11:37:59.527Z,7.13
2022-11-26T11:42:19.663Z,6.30
2022-11-26T11:46:34.192Z,5.80
2022-11-26T11:50:46.717Z,6.60
2022-11-26T11:55:16.019Z,6.87
2022-11-26T11:59:50.603Z,9.50
2022-11-26T12:04:28.491Z,7.20
2022-11-26T12:12:56.259Z,6.70
2022-11-26T12:17:08.917Z,5.77
2022-11-26T12:21:20.339Z,4.87
2022-11-26T12:25:37.513Z,5.07
2022-11-26T12:29:49.271Z,5.90
2022-11-26T12:34:04.161Z,5.60
2022-11-26T12:38:20.219Z,6.23
2022-11-26T12:42:34.545Z,4.73
2022-11-26T12:46:55.049Z,4.90
2022-11-26T12:51:35.091Z,5.90
2022-11-26T12:56:04.945Z,6.43
2022-11-26T13:00:20.002Z,5.73
2022-11-26T13:04:37.736Z,5.00
2022-11-26T13:08:48.551Z,6.00
2022-11-26T13:13:03.021Z,6.70
2022-11-26T13:17:32.770Z,5.97
2022-11-26T13:22:02.599Z,5.90
2022-11-26T13:26:36.835Z,5.50
2022-11-26T13:31:22.667Z,5.67
2022-11-26T13:35:40.060Z,5.70
2022-11-26T13:40:00.593Z,4.83
2022-11-26T13:44:12.268Z,5.30
2022-11-26T13:48:26.322Z,5.20
2022-11-26T13:52:49.902Z,5.37
2022-11-26T13:57:10.991Z,6.47
2022-11-26T14:01:36.722Z,4.27
2022-11-26T14:05:56.075Z,4.43
2022-11-26T14:10:08.220Z,4.40
2022-11-26T14:14:48.124Z,5.40
2022-11-26T14:18:59.961Z,4.67
2022-11-26T14:23:43.668Z,4.37
2022-11-26T14:27:56.795Z,4.30
2022-11-26T14:32:08.586Z,4.33
2022-11-26T14:36:29.457Z,5.83
2022-11-26T14:40:39.373Z,5.63
2022-11-26T14:44:49.482Z,6.27
2022-11-26T14:49:00.045Z,4.60
2022-11-26T14:53:08.682Z,4.83
2022-11-26T14:57:20.313Z,5.90
2022-11-26T15:01:31.016Z,4.93
2022-11-26T15:05:45.163Z,4.90
2022-11-26T15:10:05.476Z,5.50
2022-11-26T15:14:20.014Z,4.53
2022-11-26T15:18:34.292Z,5.13
2022-11-26T15:22:45.802Z,6.00
2022-11-26T15:26:54.430Z,5.60
2022-11-26T15:31:07.579Z,4.60
2022-11-26T15:35:18.838Z,5.53
2022-11-26T15:39:31.915Z,5.10
2022-11-26T15:43:49.272Z,5.30
2022-11-26T15:47:57.920Z,4.60
2022-11-26T15:52:12.313Z,5.40
2022-11-26T15:56:27.088Z,4.67
2022-11-26T16:00:43.647Z,4.67
2022-11-26T16:04:57.289Z,4.73
2022-11-26T16:09:28.123Z,5.77
2022-11-26T16:13:37.322Z,4.80
2022-11-26T16:17:46.993Z,4.67
2022-11-26T16:21:56.462Z,5.83
2022-11-26T16:26:10.626Z,5.60
2022-11-26T16:30:19.715Z,6.37
2022-11-26T16:34:28.893Z,5.07
2022-11-26T16:38:37.534Z,5.80
2022-11-26T16:42:47.020Z,5.40
2022-11-26T16:46:55.662Z,5.97
2022-11-26T16:51:04.316Z,5.70
2022-11-26T16:55:17.859Z,5.27
2022-11-26T16:59:28.945Z,7.00
2022-11-26T17:03:37.572Z,5.20
2022-11-26T17:07:57.944Z,4.93
2022-11-26T17:12:27.630Z,6.45
2022-11-26T17:16:36.237Z,4.80
2022-11-26T17:20:45.061Z,5.40
2022-11-26T17:24:53.791Z,5.80
2022-11-26T17:29:02.421Z,5.80
2022-11-26T17:33:11.979Z,5.43
2022-11-26T17:37:31.134Z,5.73
2022-11-26T17:41:39.798Z,7.30
2022-11-26T17:45:48.398Z,5.27
2022-11-26T17:49:56.929Z,5.40
2022-11-26T17:54:06.072Z,5.53
2022-11-26T17:58:14.821Z,5.30
2022-11-26T18:02:43.802Z,5.70
2022-11-26T18:07:04.701Z,5.13
2022-11-26T18:11:15.109Z,6.47
2022-11-26T18:15:26.000Z,5.70
2022-11-26T18:19:38.189Z,5.83
2022-11-26T18:23:47.002Z,5.50
2022-11-26T18:27:55.992Z,5.47
2022-11-26T18:32:04.910Z,5.60
2022-11-26T18:36:13.925Z,5.37
2022-11-26T18:40:22.669Z,5.40
2022-11-26T18:44:31.475Z,5.63
2022-11-26T18:48:40.870Z,5.97
2022-11-26T18:52:49.426Z,5.03
2022-11-26T18:56:57.997Z,4.80
2022-11-26T19:01:18.438Z,5.50
2022-11-26T19:05:27.342Z,6.30
2022-11-26T19:09:35.969Z,5.00
2022-11-26T19:13:44.596Z,4.97
2022-11-26T19:17:53.123Z,5.30
2022-11-26T19:22:02.143Z,5.10
2022-11-26T19:26:10.894Z,5.23
2022-11-26T19:30:19.827Z,5.40
2022-11-26T19:34:47.710Z,5.70
2022-11-26T19:38:57.991Z,4.27
2022-11-26T19:43:06.582Z,4.90
2022-11-26T19:47:15.142Z,5.70
2022-11-26T19:51:26.486Z,5.20
2022-11-26T19:55:35.150Z,5.80
2022-11-26T20:00:04.875Z,5.13
2022-11-26T20:04:33.778Z,5.05
2022-11-26T20:08:42.544Z,5.30
2022-11-26T20:12:51.242Z,6.67
2022-11-26T20:17:01.704Z,4.77
2022-11-26T20:21:15.983Z,4.33
2022-11-26T20:25:24.809Z,4.73
2022-11-26T20:29:33.435Z,5.80
2022-11-26T20:33:42.407Z,6.07
2022-11-26T20:37:52.147Z,4.37
2022-11-26T20:42:00.857Z,4.60
2022-11-26T20:46:11.288Z,6.13
2022-11-26T20:50:19.957Z,5.20
2022-11-26T20:54:28.541Z,6.63
2022-11-26T20:58:37.371Z,5.37
2022-11-26T21:02:47.236Z,5.60
2022-11-26T21:06:56.113Z,5.40
2022-11-26T21:11:05.727Z,6.87
2022-11-26T21:15:14.392Z,6.87
2022-11-26T21:19:22.959Z,6.10
2022-11-26T21:23:31.958Z,6.73
2022-11-26T21:27:40.586Z,5.93
2022-11-26T21:31:49.216Z,6.47
2022-11-26T21:35:59.387Z,6.70
2022-11-26T21:40:11.125Z,7.07
2022-11-26T21:44:19.710Z,6.30
2022-11-26T21:48:28.246Z,5.43
2022-11-26T21:52:36.853Z,5.67
2022-11-26T21:56:46.005Z,4.60
2022-11-26T22:01:15.333Z,4.77
2022-11-26T22:05:24.152Z,6.13
2022-11-26T22:09:32.882Z,5.60
2022-11-26T22:13:42.485Z,4.63
2022-11-26T22:17:51.065Z,5.50
2022-11-26T22:21:59.694Z,5.93
2022-11-26T22:26:08.421Z,5.00
2022-11-26T22:30:17.313Z,6.30
2022-11-26T22:34:27.832Z,5.37
2022-11-26T22:38:38.154Z,5.13
2022-11-26T22:42:46.707Z,3.97
2022-11-26T22:46:55.354Z,4.57
2022-11-26T22:51:04.506Z,5.10
2022-11-26T22:55:13.328Z,4.93
2022-11-26T22:59:22.058Z,5.03
2022-11-26T23:03:32.478Z,4.77
2022-11-26T23:07:41.372Z,5.00
2022-11-26T23:12:09.448Z,4.80
2022-11-26T23:16:19.713Z,4.90
2022-11-26T23:20:28.452Z,4.77
2022-11-26T23:24:37.076Z,5.10
2022-11-26T23:28:45.917Z,5.10
2022-11-26T23:32:54.537Z,6.50
2022-11-26T23:37:04.146Z,6.03
2022-11-26T23:41:13.741Z,4.90
2022-11-26T23:45:22.253Z,5.00
2022-11-26T23:49:30.895Z,4.77
2022-11-26T23:53:41.880Z,4.93
2022-11-26T23:57:50.526Z,5.87
